Friday, December 14, 2018, 12:04 PM EST
Back to Local

KHYA, Hyannis Barnstable Boardmn

Location: West Yarmouth, MA, United States Lat: 41.667
Local Time: 12:04 PM EST (17:04 GMT) Lon: -70.267
Time Zone: US/Eastern Elev: 52 ft

Show me the last for .
Show Decoded

2018-12-14 10:56 METAR KHYA 141556Z 17008KT 10SM CLR 06/01 A3048 RMK AO2 SLP325 T00610011 =
2018-12-14 09:56 METAR KHYA 141456Z 13007KT 10SM CLR 06/01 A3052 RMK AO2 SLP338 T00610006 53000 $
                 =
2018-12-14 08:56 METAR KHYA 141356Z 11003KT 10SM CLR 04/01 A3052 RMK AO2 SLP335 T00440011 =
2018-12-14 07:56 METAR KHYA 141256Z 04003KT 10SM CLR M03/M06 A3052 RMK AO2 SLP338 T10331056 =
2018-12-14 06:56 METAR KHYA 141156Z 00000KT 10SM CLR M06/M07 A3052 RMK AO2 SLP338 I6000 T10561067
                 11044 21061 55002 $ =
2018-12-14 05:56 METAR KHYA 141056Z 00000KT 10SM CLR M05/M07 A3052 RMK AO2 SLP336 I1000 T10501067
                 $ =
2018-12-14 04:56 METAR KHYA 140956Z AUTO 04003KT CLR M06/M07 A3051 RMK AO2 SLP332 T10561072 $ =
2018-12-14 03:56 METAR KHYA 140856Z AUTO 00000KT CLR M06/M07 A3053 RMK AO2 SLP340 I1000 I3000
                 T10561067 58006 $ =
2018-12-14 02:56 METAR KHYA 140756Z AUTO 04004KT CLR M05/M07 A3054 RMK AO2 SLP342 T10501067 $ =
2018-12-14 01:56 METAR KHYA 140656Z AUTO 00000KT CLR M05/M06 A3056 RMK AO2 SLP349 T10501061 $ =
2018-12-14 00:56 METAR KHYA 140556Z AUTO 00000KT CLR M04/M06 A3055 RMK AO2 SLP346 T10441061 11011
                 21044 55001 $ =
2018-12-13 23:56 METAR KHYA 140456Z AUTO 00000KT CLR M04/M06 A3053 RMK AO2 SLP341 T10391056
                 400331056 $ =
2018-12-13 22:56 METAR KHYA 140356Z AUTO 07003KT CLR M04/M07 A3055 RMK AO2 SLP345 T10391067 $ =
2018-12-13 21:56 METAR KHYA 140256Z 07003KT 10SM CLR M03/M06 A3055 RMK AO2 SLP347 T10331061 50001
                 $ =
2018-12-13 20:56 METAR KHYA 140156Z 00000KT BKN110 M03/M06 A3055 RMK AO2 SLP348 T10281061 $ =
2018-12-13 19:56 METAR KHYA 140056Z 05003KT OVC080 M02/M06 A3055 RMK AO2 SLP346 T10171056 $ =
2018-12-13 18:56 METAR KHYA 132356Z 00000KT 10SM SCT080 M02/M07 A3055 RMK AO2 SLP346 T10221067
                 10033 21022 51008 =
2018-12-13 17:56 METAR KHYA 132256Z 00000KT 10SM CLR M01/M06 A3054 RMK AO2 SLP344 T10111061 =
2018-12-13 16:56 METAR KHYA 132156Z 00000KT 10SM BKN120 01/M06 A3054 RMK AO2 SLP342 T00061056 =
2018-12-13 15:56 METAR KHYA 132056Z 00000KT 10SM BKN110 01/M06 A3052 RMK AO2 SLP338 T00111056
                 53008 =
2018-12-13 14:56 METAR KHYA 131956Z 11006KT 10SM BKN110 02/M06 A3051 RMK AO2 SLP333 T00171061 =
2018-12-13 13:56 METAR KHYA 131856Z 13004KT 10SM CLR 02/M06 A3050 RMK AO2 SLP331 T00171061 =
2018-12-13 12:56 METAR KHYA 131756Z 10005KT 10SM SCT034 03/M07 A3050 RMK AO2 SLP330 T00281067
                 10028 21050 55002 =

Support USWX by starting your Amazon purchase here.